Queets, Washington
Current Conditions -  °F | °C
As of 8:53 AM on Tuesday 27 Jan 2015 (Local Time) from KUIL Reporting Station
Haze Haze  
Wind Chill: 49°   Ceiling: 2200
Heat Index: 49°   Visibility: 1.7mi
Dew Point: 49°   Wind: 0mph
Humidity: 100%   Direction: NA
Pressure: 30.04"   Gusts: NA
Location:  47.9519°N, 124.29°W
Report Text: KUIL 271653Z AUTO 00000KT 1 3/4SM BR OVC022 09/09 A3004 RMK AO2 SLP173 T00940094
Loading
Personal Weather Stations






























Interactive Weather Map New forecast layout! Learn more

10-Day Weather Forecast

Advertisements
Track Severe Weather on mobile